sensor_id;sensor_type;location;lat;lon;timestamp;P1;durP1;ratioP1;P2;durP2;ratioP2
70683;SDS011;58263;48.146;11.440;2023-05-10T00:01:15;1.20;;;1.10;;
70683;SDS011;58263;48.146;11.440;2023-05-10T00:03:40;0.70;;;0.70;;
70683;SDS011;58263;48.146;11.440;2023-05-10T00:06:06;1.80;;;0.82;;
70683;SDS011;58263;48.146;11.440;2023-05-10T00:08:31;1.52;;;1.00;;
70683;SDS011;58263;48.146;11.440;2023-05-10T00:10:56;2.50;;;0.90;;
70683;SDS011;58263;48.146;11.440;2023-05-10T00:13:22;1.47;;;0.90;;
70683;SDS011;58263;48.146;11.440;2023-05-10T00:15:47;0.63;;;0.63;;
70683;SDS011;58263;48.146;11.440;2023-05-10T00:18:12;1.50;;;1.40;;
70683;SDS011;58263;48.146;11.440;2023-05-10T00:20:38;1.90;;;0.90;;
70683;SDS011;58263;48.146;11.440;2023-05-10T00:23:03;0.80;;;0.70;;
70683;SDS011;58263;48.146;11.440;2023-05-10T00:25:28;0.80;;;0.77;;
70683;SDS011;58263;48.146;11.440;2023-05-10T00:27:54;1.00;;;0.90;;
70683;SDS011;58263;48.146;11.440;2023-05-10T00:30:20;1.75;;;0.90;;
70683;SDS011;58263;48.146;11.440;2023-05-10T00:32:45;10.52;;;5.10;;
70683;SDS011;58263;48.146;11.440;2023-05-10T00:35:13;1.45;;;1.35;;
70683;SDS011;58263;48.146;11.440;2023-05-10T00:37:38;2.70;;;0.85;;
70683;SDS011;58263;48.146;11.440;2023-05-10T00:40:03;0.50;;;0.50;;
70683;SDS011;58263;48.146;11.440;2023-05-10T00:42:30;2.05;;;0.77;;
70683;SDS011;58263;48.146;11.440;2023-05-10T00:44:55;0.60;;;0.60;;
70683;SDS011;58263;48.146;11.440;2023-05-10T00:47:21;0.47;;;0.47;;
70683;SDS011;58263;48.146;11.440;2023-05-10T00:49:47;0.50;;;0.50;;
70683;SDS011;58263;48.146;11.440;2023-05-10T00:52:12;0.60;;;0.60;;
70683;SDS011;58263;48.146;11.440;2023-05-10T00:54:38;0.43;;;0.40;;
70683;SDS011;58263;48.146;11.440;2023-05-10T00:57:03;1.85;;;1.30;;
70683;SDS011;58263;48.146;11.440;2023-05-10T00:59:29;1.67;;;1.27;;
70683;SDS011;58263;48.146;11.440;2023-05-10T01:01:54;1.25;;;0.75;;
70683;SDS011;58263;48.146;11.440;2023-05-10T01:04:20;1.05;;;0.60;;
70683;SDS011;58263;48.146;11.440;2023-05-10T01:06:50;0.50;;;0.50;;
70683;SDS011;58263;48.146;11.440;2023-05-10T01:09:16;0.60;;;0.60;;
70683;SDS011;58263;48.146;11.440;2023-05-10T01:11:42;0.60;;;0.60;;
70683;SDS011;58263;48.146;11.440;2023-05-10T01:14:16;0.88;;;0.88;;
70683;SDS011;58263;48.146;11.440;2023-05-10T01:16:47;3.95;;;1.40;;
70683;SDS011;58263;48.146;11.440;2023-05-10T01:33:01;0.63;;;0.63;;
70683;SDS011;58263;48.146;11.440;2023-05-10T01:35:40;2.08;;;0.52;;
70683;SDS011;58263;48.146;11.440;2023-05-10T01:43:21;1.17;;;0.57;;
70683;SDS011;58263;48.146;11.440;2023-05-10T01:46:01;0.50;;;0.50;;
70683;SDS011;58263;48.146;11.440;2023-05-10T01:48:35;0.50;;;0.50;;
70683;SDS011;58263;48.146;11.440;2023-05-10T01:51:11;0.47;;;0.45;;
70683;SDS011;58263;48.146;11.440;2023-05-10T01:53:39;2.92;;;0.50;;
70683;SDS011;58263;48.146;11.440;2023-05-10T01:56:07;0.40;;;0.40;;
70683;SDS011;58263;48.146;11.440;2023-05-10T01:58:34;0.43;;;0.25;;
70683;SDS011;58263;48.146;11.440;2023-05-10T02:01:01;0.38;;;0.38;;
70683;SDS011;58263;48.146;11.440;2023-05-10T02:03:29;0.20;;;0.20;;
70683;SDS011;58263;48.146;11.440;2023-05-10T02:05:57;1.17;;;0.52;;
70683;SDS011;58263;48.146;11.440;2023-05-10T02:08:23;1.48;;;0.40;;
70683;SDS011;58263;48.146;11.440;2023-05-10T02:10:50;0.32;;;0.32;;
70683;SDS011;58263;48.146;11.440;2023-05-10T02:15:45;0.80;;;0.80;;
70683;SDS011;58263;48.146;11.440;2023-05-10T02:18:13;2.53;;;0.40;;
70683;SDS011;58263;48.146;11.440;2023-05-10T02:20:39;0.50;;;0.50;;
70683;SDS011;58263;48.146;11.440;2023-05-10T02:23:05;0.47;;;0.47;;
70683;SDS011;58263;48.146;11.440;2023-05-10T02:25:33;0.13;;;0.13;;
70683;SDS011;58263;48.146;11.440;2023-05-10T02:28:00;0.55;;;0.47;;
70683;SDS011;58263;48.146;11.440;2023-05-10T02:32:54;0.38;;;0.38;;
70683;SDS011;58263;48.146;11.440;2023-05-10T02:35:20;0.30;;;0.30;;
70683;SDS011;58263;48.146;11.440;2023-05-10T02:37:47;1.67;;;0.77;;
70683;SDS011;58263;48.146;11.440;2023-05-10T02:40:13;1.05;;;0.32;;
70683;SDS011;58263;48.146;11.440;2023-05-10T02:42:41;0.55;;;0.40;;
70683;SDS011;58263;48.146;11.440;2023-05-10T02:45:11;0.60;;;0.52;;
70683;SDS011;58263;48.146;11.440;2023-05-10T02:47:38;1.65;;;0.40;;
70683;SDS011;58263;48.146;11.440;2023-05-10T02:50:04;1.83;;;0.40;;
70683;SDS011;58263;48.146;11.440;2023-05-10T02:52:39;0.43;;;0.43;;
70683;SDS011;58263;48.146;11.440;2023-05-10T02:55:09;1.55;;;0.60;;
70683;SDS011;58263;48.146;11.440;2023-05-10T02:57:38;1.48;;;0.68;;
70683;SDS011;58263;48.146;11.440;2023-05-10T03:00:08;0.52;;;0.50;;
70683;SDS011;58263;48.146;11.440;2023-05-10T03:02:36;0.60;;;0.60;;
70683;SDS011;58263;48.146;11.440;2023-05-10T03:07:28;1.30;;;0.85;;
70683;SDS011;58263;48.146;11.440;2023-05-10T03:09:54;1.23;;;0.60;;
70683;SDS011;58263;48.146;11.440;2023-05-10T03:15:28;0.35;;;0.35;;
70683;SDS011;58263;48.146;11.440;2023-05-10T03:20:44;1.55;;;0.55;;
70683;SDS011;58263;48.146;11.440;2023-05-10T03:23:24;1.55;;;0.50;;
70683;SDS011;58263;48.146;11.440;2023-05-10T03:25:52;0.50;;;0.50;;
70683;SDS011;58263;48.146;11.440;2023-05-10T03:28:18;0.52;;;0.50;;
70683;SDS011;58263;48.146;11.440;2023-05-10T03:30:45;0.40;;;0.40;;
70683;SDS011;58263;48.146;11.440;2023-05-10T03:33:11;0.40;;;0.40;;
70683;SDS011;58263;48.146;11.440;2023-05-10T03:35:38;1.13;;;0.50;;
70683;SDS011;58263;48.146;11.440;2023-05-10T03:38:03;1.88;;;0.30;;
70683;SDS011;58263;48.146;11.440;2023-05-10T03:40:29;0.40;;;0.40;;
70683;SDS011;58263;48.146;11.440;2023-05-10T03:42:56;2.67;;;0.40;;
70683;SDS011;58263;48.146;11.440;2023-05-10T03:45:21;0.47;;;0.47;;
70683;SDS011;58263;48.146;11.440;2023-05-10T03:47:47;0.30;;;0.30;;
70683;SDS011;58263;48.146;11.440;2023-05-10T03:50:12;0.93;;;0.38;;
70683;SDS011;58263;48.146;11.440;2023-05-10T03:52:38;1.53;;;0.53;;
70683;SDS011;58263;48.146;11.440;2023-05-10T03:55:04;0.47;;;0.47;;
70683;SDS011;58263;48.146;11.440;2023-05-10T03:57:31;0.30;;;0.30;;
70683;SDS011;58263;48.146;11.440;2023-05-10T03:59:56;1.08;;;0.50;;
70683;SDS011;58263;48.146;11.440;2023-05-10T04:02:22;0.70;;;0.70;;
70683;SDS011;58263;48.146;11.440;2023-05-10T04:04:47;2.97;;;1.00;;
70683;SDS011;58263;48.146;11.440;2023-05-10T04:07:13;0.70;;;0.68;;
70683;SDS011;58263;48.146;11.440;2023-05-10T04:09:38;1.45;;;0.75;;
70683;SDS011;58263;48.146;11.440;2023-05-10T04:12:04;0.73;;;0.65;;
70683;SDS011;58263;48.146;11.440;2023-05-10T04:14:30;0.63;;;0.63;;
70683;SDS011;58263;48.146;11.440;2023-05-10T04:16:55;0.77;;;0.77;;
70683;SDS011;58263;48.146;11.440;2023-05-10T04:19:21;2.50;;;0.85;;
70683;SDS011;58263;48.146;11.440;2023-05-10T04:22:04;0.98;;;0.65;;
70683;SDS011;58263;48.146;11.440;2023-05-10T04:24:31;0.57;;;0.57;;
70683;SDS011;58263;48.146;11.440;2023-05-10T04:26:57;0.68;;;0.68;;
70683;SDS011;58263;48.146;11.440;2023-05-10T04:29:22;7.28;;;3.60;;
70683;SDS011;58263;48.146;11.440;2023-05-10T04:31:48;8.32;;;4.43;;
70683;SDS011;58263;48.146;11.440;2023-05-10T04:34:14;1.20;;;1.10;;
70683;SDS011;58263;48.146;11.440;2023-05-10T04:36:39;1.30;;;0.80;;
70683;SDS011;58263;48.146;11.440;2023-05-10T04:39:04;0.50;;;0.50;;
70683;SDS011;58263;48.146;11.440;2023-05-10T04:47:21;0.20;;;0.20;;
70683;SDS011;58263;48.146;11.440;2023-05-10T04:49:50;3.40;;;0.35;;
70683;SDS011;58263;48.146;11.440;2023-05-10T04:52:15;1.55;;;0.40;;
70683;SDS011;58263;48.146;11.440;2023-05-10T04:54:43;1.52;;;0.30;;
70683;SDS011;58263;48.146;11.440;2023-05-10T04:57:09;2.95;;;1.67;;
70683;SDS011;58263;48.146;11.440;2023-05-10T04:59:35;2.63;;;0.80;;
70683;SDS011;58263;48.146;11.440;2023-05-10T05:02:01;0.20;;;0.20;;
70683;SDS011;58263;48.146;11.440;2023-05-10T05:04:27;0.38;;;0.38;;
70683;SDS011;58263;48.146;11.440;2023-05-10T05:06:52;2.57;;;0.37;;
70683;SDS011;58263;48.146;11.440;2023-05-10T05:09:18;0.30;;;0.30;;
70683;SDS011;58263;48.146;11.440;2023-05-10T05:11:43;1.75;;;0.30;;
70683;SDS011;58263;48.146;11.440;2023-05-10T05:14:08;1.50;;;0.30;;
70683;SDS011;58263;48.146;11.440;2023-05-10T05:16:37;0.30;;;0.30;;
70683;SDS011;58263;48.146;11.440;2023-05-10T05:19:02;1.10;;;0.35;;
70683;SDS011;58263;48.146;11.440;2023-05-10T05:21:27;0.52;;;0.32;;
70683;SDS011;58263;48.146;11.440;2023-05-10T05:23:53;1.67;;;0.98;;
70683;SDS011;58263;48.146;11.440;2023-05-10T05:26:19;1.00;;;0.60;;
70683;SDS011;58263;48.146;11.440;2023-05-10T05:28:44;0.40;;;0.40;;
70683;SDS011;58263;48.146;11.440;2023-05-10T05:31:09;0.20;;;0.20;;
70683;SDS011;58263;48.146;11.440;2023-05-10T05:33:35;1.30;;;0.30;;
70683;SDS011;58263;48.146;11.440;2023-05-10T05:36:01;0.47;;;0.20;;
70683;SDS011;58263;48.146;11.440;2023-05-10T05:38:30;0.28;;;0.28;;
70683;SDS011;58263;48.146;11.440;2023-05-10T05:40:56;0.20;;;0.20;;
70683;SDS011;58263;48.146;11.440;2023-05-10T05:43:21;0.28;;;0.28;;
70683;SDS011;58263;48.146;11.440;2023-05-10T05:45:47;0.17;;;0.17;;
70683;SDS011;58263;48.146;11.440;2023-05-10T05:48:12;0.40;;;0.30;;
70683;SDS011;58263;48.146;11.440;2023-05-10T05:50:38;0.25;;;0.25;;
70683;SDS011;58263;48.146;11.440;2023-05-10T05:53:03;1.77;;;0.77;;
70683;SDS011;58263;48.146;11.440;2023-05-10T05:55:28;0.98;;;0.55;;
70683;SDS011;58263;48.146;11.440;2023-05-10T05:57:56;0.30;;;0.30;;
70683;SDS011;58263;48.146;11.440;2023-05-10T06:00:22;0.32;;;0.28;;
70683;SDS011;58263;48.146;11.440;2023-05-10T06:02:57;0.63;;;0.40;;
70683;SDS011;58263;48.146;11.440;2023-05-10T06:05:23;0.47;;;0.40;;
70683;SDS011;58263;48.146;11.440;2023-05-10T06:07:55;0.47;;;0.47;;
70683;SDS011;58263;48.146;11.440;2023-05-10T06:10:26;0.57;;;0.47;;
70683;SDS011;58263;48.146;11.440;2023-05-10T06:16:16;0.60;;;0.60;;
70683;SDS011;58263;48.146;11.440;2023-05-10T06:18:42;0.60;;;0.60;;
70683;SDS011;58263;48.146;11.440;2023-05-10T06:21:08;0.65;;;0.55;;
70683;SDS011;58263;48.146;11.440;2023-05-10T06:23:40;0.63;;;0.52;;
70683;SDS011;58263;48.146;11.440;2023-05-10T06:26:05;0.75;;;0.50;;
70683;SDS011;58263;48.146;11.440;2023-05-10T06:28:30;0.68;;;0.68;;
70683;SDS011;58263;48.146;11.440;2023-05-10T06:30:57;4.30;;;0.70;;
70683;SDS011;58263;48.146;11.440;2023-05-10T06:33:22;0.43;;;0.30;;
70683;SDS011;58263;48.146;11.440;2023-05-10T06:35:48;0.47;;;0.47;;
70683;SDS011;58263;48.146;11.440;2023-05-10T06:38:13;3.43;;;0.70;;
70683;SDS011;58263;48.146;11.440;2023-05-10T06:40:41;1.60;;;0.60;;
70683;SDS011;58263;48.146;11.440;2023-05-10T06:43:09;0.60;;;0.60;;
70683;SDS011;58263;48.146;11.440;2023-05-10T06:45:35;0.60;;;0.60;;
70683;SDS011;58263;48.146;11.440;2023-05-10T06:48:00;0.40;;;0.40;;
70683;SDS011;58263;48.146;11.440;2023-05-10T06:50:25;1.38;;;0.57;;
70683;SDS011;58263;48.146;11.440;2023-05-10T06:52:51;0.70;;;0.40;;
70683;SDS011;58263;48.146;11.440;2023-05-10T06:55:16;0.60;;;0.60;;
70683;SDS011;58263;48.146;11.440;2023-05-10T06:57:42;4.57;;;2.03;;
70683;SDS011;58263;48.146;11.440;2023-05-10T07:00:07;0.60;;;0.50;;
70683;SDS011;58263;48.146;11.440;2023-05-10T07:02:34;0.40;;;0.40;;
70683;SDS011;58263;48.146;11.440;2023-05-10T07:05:00;0.60;;;0.60;;
70683;SDS011;58263;48.146;11.440;2023-05-10T07:07:27;4.78;;;0.60;;
70683;SDS011;58263;48.146;11.440;2023-05-10T07:09:52;0.75;;;0.57;;
70683;SDS011;58263;48.146;11.440;2023-05-10T07:12:18;1.17;;;1.17;;
70683;SDS011;58263;48.146;11.440;2023-05-10T07:14:43;1.17;;;0.85;;
70683;SDS011;58263;48.146;11.440;2023-05-10T07:17:09;0.70;;;0.70;;
70683;SDS011;58263;48.146;11.440;2023-05-10T07:19:34;0.63;;;0.60;;
70683;SDS011;58263;48.146;11.440;2023-05-10T07:22:00;2.15;;;0.60;;
70683;SDS011;58263;48.146;11.440;2023-05-10T07:24:26;0.77;;;0.68;;
70683;SDS011;58263;48.146;11.440;2023-05-10T07:26:52;1.85;;;0.80;;
70683;SDS011;58263;48.146;11.440;2023-05-10T07:29:17;2.08;;;0.77;;
70683;SDS011;58263;48.146;11.440;2023-05-10T07:31:42;2.43;;;1.97;;
70683;SDS011;58263;48.146;11.440;2023-05-10T07:34:08;0.80;;;0.80;;
70683;SDS011;58263;48.146;11.440;2023-05-10T07:36:33;0.70;;;0.70;;
70683;SDS011;58263;48.146;11.440;2023-05-10T07:38:59;0.70;;;0.70;;
70683;SDS011;58263;48.146;11.440;2023-05-10T07:41:25;0.60;;;0.60;;
70683;SDS011;58263;48.146;11.440;2023-05-10T07:43:51;0.65;;;0.65;;
70683;SDS011;58263;48.146;11.440;2023-05-10T07:46:16;0.80;;;0.43;;
70683;SDS011;58263;48.146;11.440;2023-05-10T07:48:41;0.60;;;0.55;;
70683;SDS011;58263;48.146;11.440;2023-05-10T07:51:07;0.60;;;0.60;;
70683;SDS011;58263;48.146;11.440;2023-05-10T07:53:34;0.57;;;0.57;;
70683;SDS011;58263;48.146;11.440;2023-05-10T07:56:19;3.67;;;2.20;;
70683;SDS011;58263;48.146;11.440;2023-05-10T07:58:45;1.05;;;0.60;;
70683;SDS011;58263;48.146;11.440;2023-05-10T08:01:11;0.60;;;0.60;;
70683;SDS011;58263;48.146;11.440;2023-05-10T08:03:36;0.87;;;0.80;;
70683;SDS011;58263;48.146;11.440;2023-05-10T08:06:01;1.47;;;0.57;;
70683;SDS011;58263;48.146;11.440;2023-05-10T08:08:28;0.40;;;0.40;;
70683;SDS011;58263;48.146;11.440;2023-05-10T08:10:55;1.27;;;0.80;;
70683;SDS011;58263;48.146;11.440;2023-05-10T08:13:24;1.03;;;0.50;;
70683;SDS011;58263;48.146;11.440;2023-05-10T08:15:49;0.60;;;0.60;;
70683;SDS011;58263;48.146;11.440;2023-05-10T08:18:17;0.88;;;0.60;;
70683;SDS011;58263;48.146;11.440;2023-05-10T08:20:43;0.93;;;0.93;;
70683;SDS011;58263;48.146;11.440;2023-05-10T08:23:08;1.40;;;0.50;;
70683;SDS011;58263;48.146;11.440;2023-05-10T08:25:34;3.70;;;0.50;;
70683;SDS011;58263;48.146;11.440;2023-05-10T08:27:59;3.97;;;0.57;;
70683;SDS011;58263;48.146;11.440;2023-05-10T08:30:25;0.80;;;0.53;;
70683;SDS011;58263;48.146;11.440;2023-05-10T08:32:50;0.93;;;0.57;;
70683;SDS011;58263;48.146;11.440;2023-05-10T08:35:15;1.67;;;0.70;;
70683;SDS011;58263;48.146;11.440;2023-05-10T08:37:41;4.10;;;0.65;;
70683;SDS011;58263;48.146;11.440;2023-05-10T08:40:06;0.63;;;0.60;;
70683;SDS011;58263;48.146;11.440;2023-05-10T08:45:02;1.25;;;0.70;;
70683;SDS011;58263;48.146;11.440;2023-05-10T08:47:29;0.95;;;0.65;;
70683;SDS011;58263;48.146;11.440;2023-05-10T08:49:55;0.35;;;0.35;;
70683;SDS011;58263;48.146;11.440;2023-05-10T08:52:24;0.57;;;0.57;;
70683;SDS011;58263;48.146;11.440;2023-05-10T08:54:51;1.23;;;0.32;;
70683;SDS011;58263;48.146;11.440;2023-05-10T08:57:17;1.45;;;0.60;;
70683;SDS011;58263;48.146;11.440;2023-05-10T08:59:43;2.95;;;0.35;;
70683;SDS011;58263;48.146;11.440;2023-05-10T09:02:09;1.23;;;0.50;;
70683;SDS011;58263;48.146;11.440;2023-05-10T09:04:38;0.35;;;0.35;;
70683;SDS011;58263;48.146;11.440;2023-05-10T09:07:07;0.55;;;0.52;;
70683;SDS011;58263;48.146;11.440;2023-05-10T09:09:33;1.95;;;0.85;;
70683;SDS011;58263;48.146;11.440;2023-05-10T09:12:00;7.43;;;0.65;;
70683;SDS011;58263;48.146;11.440;2023-05-10T09:14:25;2.60;;;0.68;;
70683;SDS011;58263;48.146;11.440;2023-05-10T09:16:51;2.80;;;0.63;;
70683;SDS011;58263;48.146;11.440;2023-05-10T09:19:19;5.45;;;0.60;;
70683;SDS011;58263;48.146;11.440;2023-05-10T09:21:44;0.63;;;0.45;;
70683;SDS011;58263;48.146;11.440;2023-05-10T09:24:10;0.60;;;0.28;;
70683;SDS011;58263;48.146;11.440;2023-05-10T09:26:35;0.45;;;0.40;;
70683;SDS011;58263;48.146;11.440;2023-05-10T09:29:13;1.05;;;0.60;;
70683;SDS011;58263;48.146;11.440;2023-05-10T09:31:45;0.68;;;0.43;;
70683;SDS011;58263;48.146;11.440;2023-05-10T09:34:30;0.57;;;0.57;;
70683;SDS011;58263;48.146;11.440;2023-05-10T09:37:00;4.13;;;0.60;;
70683;SDS011;58263;48.146;11.440;2023-05-10T09:39:36;0.75;;;0.55;;
70683;SDS011;58263;48.146;11.440;2023-05-10T09:42:04;2.88;;;0.55;;
70683;SDS011;58263;48.146;11.440;2023-05-10T09:44:31;2.38;;;0.65;;
70683;SDS011;58263;48.146;11.440;2023-05-10T09:46:57;0.98;;;0.98;;
70683;SDS011;58263;48.146;11.440;2023-05-10T09:49:23;1.58;;;0.82;;
70683;SDS011;58263;48.146;11.440;2023-05-10T09:52:04;0.40;;;0.40;;
70683;SDS011;58263;48.146;11.440;2023-05-10T09:54:33;0.40;;;0.40;;
70683;SDS011;58263;48.146;11.440;2023-05-10T09:56:59;0.75;;;0.65;;
70683;SDS011;58263;48.146;11.440;2023-05-10T09:59:26;0.50;;;0.50;;
70683;SDS011;58263;48.146;11.440;2023-05-10T10:01:56;0.50;;;0.50;;
70683;SDS011;58263;48.146;11.440;2023-05-10T10:04:24;0.55;;;0.30;;
70683;SDS011;58263;48.146;11.440;2023-05-10T10:07:00;1.92;;;0.38;;
70683;SDS011;58263;48.146;11.440;2023-05-10T10:09:29;0.45;;;0.40;;
70683;SDS011;58263;48.146;11.440;2023-05-10T10:11:55;0.40;;;0.40;;
70683;SDS011;58263;48.146;11.440;2023-05-10T10:14:23;0.55;;;0.50;;
70683;SDS011;58263;48.146;11.440;2023-05-10T10:16:51;2.60;;;0.50;;
70683;SDS011;58263;48.146;11.440;2023-05-10T10:19:18;1.13;;;0.52;;
70683;SDS011;58263;48.146;11.440;2023-05-10T10:21:45;1.08;;;0.40;;
70683;SDS011;58263;48.146;11.440;2023-05-10T10:24:11;0.65;;;0.52;;
70683;SDS011;58263;48.146;11.440;2023-05-10T10:26:36;0.53;;;0.50;;
70683;SDS011;58263;48.146;11.440;2023-05-10T10:29:29;0.70;;;0.45;;
70683;SDS011;58263;48.146;11.440;2023-05-10T10:32:12;1.40;;;0.60;;
70683;SDS011;58263;48.146;11.440;2023-05-10T10:34:49;0.50;;;0.50;;
70683;SDS011;58263;48.146;11.440;2023-05-10T10:37:15;1.92;;;0.63;;
70683;SDS011;58263;48.146;11.440;2023-05-10T10:39:40;0.50;;;0.50;;
70683;SDS011;58263;48.146;11.440;2023-05-10T10:42:06;1.87;;;0.57;;
70683;SDS011;58263;48.146;11.440;2023-05-10T10:47:02;2.92;;;1.17;;
70683;SDS011;58263;48.146;11.440;2023-05-10T10:49:31;5.85;;;1.17;;
70683;SDS011;58263;48.146;11.440;2023-05-10T10:54:57;4.65;;;1.00;;
70683;SDS011;58263;48.146;11.440;2023-05-10T11:00:26;1.80;;;1.05;;
70683;SDS011;58263;48.146;11.440;2023-05-10T11:02:57;1.58;;;1.10;;
70683;SDS011;58263;48.146;11.440;2023-05-10T11:05:48;4.45;;;1.60;;
70683;SDS011;58263;48.146;11.440;2023-05-10T11:11:02;2.55;;;1.33;;
70683;SDS011;58263;48.146;11.440;2023-05-10T11:13:37;2.83;;;1.70;;
70683;SDS011;58263;48.146;11.440;2023-05-10T11:18:36;2.67;;;1.20;;
70683;SDS011;58263;48.146;11.440;2023-05-10T11:24:32;1.00;;;0.90;;
70683;SDS011;58263;48.146;11.440;2023-05-10T11:26:58;2.90;;;1.27;;
70683;SDS011;58263;48.146;11.440;2023-05-10T11:32:40;2.88;;;0.82;;
70683;SDS011;58263;48.146;11.440;2023-05-10T11:35:06;0.47;;;0.47;;
70683;SDS011;58263;48.146;11.440;2023-05-10T11:37:35;1.55;;;0.70;;
70683;SDS011;58263;48.146;11.440;2023-05-10T11:40:00;2.85;;;0.88;;
70683;SDS011;58263;48.146;11.440;2023-05-10T11:42:27;1.23;;;0.43;;
70683;SDS011;58263;48.146;11.440;2023-05-10T11:44:53;0.60;;;0.60;;
70683;SDS011;58263;48.146;11.440;2023-05-10T11:47:19;0.68;;;0.68;;
70683;SDS011;58263;48.146;11.440;2023-05-10T11:49:45;0.63;;;0.47;;
70683;SDS011;58263;48.146;11.440;2023-05-10T11:52:11;0.88;;;0.60;;
70683;SDS011;58263;48.146;11.440;2023-05-10T11:54:37;2.17;;;0.70;;
70683;SDS011;58263;48.146;11.440;2023-05-10T11:57:03;0.60;;;0.60;;
70683;SDS011;58263;48.146;11.440;2023-05-10T11:59:28;1.50;;;0.90;;
70683;SDS011;58263;48.146;11.440;2023-05-10T12:01:56;2.88;;;0.90;;
70683;SDS011;58263;48.146;11.440;2023-05-10T12:04:21;1.33;;;0.80;;
70683;SDS011;58263;48.146;11.440;2023-05-10T12:06:47;12.82;;;7.22;;
70683;SDS011;58263;48.146;11.440;2023-05-10T12:09:13;10.80;;;7.45;;
70683;SDS011;58263;48.146;11.440;2023-05-10T12:11:39;12.13;;;7.55;;
70683;SDS011;58263;48.146;11.440;2023-05-10T12:14:05;3.13;;;2.40;;
70683;SDS011;58263;48.146;11.440;2023-05-10T12:16:31;1.92;;;1.67;;
70683;SDS011;58263;48.146;11.440;2023-05-10T12:19:00;2.08;;;1.60;;
70683;SDS011;58263;48.146;11.440;2023-05-10T12:21:26;2.20;;;1.48;;
70683;SDS011;58263;48.146;11.440;2023-05-10T12:23:53;2.47;;;1.67;;
70683;SDS011;58263;48.146;11.440;2023-05-10T12:26:23;3.35;;;1.60;;
70683;SDS011;58263;48.146;11.440;2023-05-10T12:28:51;2.55;;;0.88;;
70683;SDS011;58263;48.146;11.440;2023-05-10T12:31:18;2.58;;;1.08;;
70683;SDS011;58263;48.146;11.440;2023-05-10T12:33:44;3.85;;;1.13;;
70683;SDS011;58263;48.146;11.440;2023-05-10T12:36:11;1.45;;;1.00;;
70683;SDS011;58263;48.146;11.440;2023-05-10T12:38:41;2.40;;;1.63;;
70683;SDS011;58263;48.146;11.440;2023-05-10T12:41:14;2.40;;;1.20;;
70683;SDS011;58263;48.146;11.440;2023-05-10T12:43:41;1.67;;;1.17;;
70683;SDS011;58263;48.146;11.440;2023-05-10T12:46:07;3.55;;;1.20;;
70683;SDS011;58263;48.146;11.440;2023-05-10T12:48:34;4.47;;;1.63;;
70683;SDS011;58263;48.146;11.440;2023-05-10T12:51:01;2.45;;;1.27;;
70683;SDS011;58263;48.146;11.440;2023-05-10T12:53:28;3.97;;;1.40;;
70683;SDS011;58263;48.146;11.440;2023-05-10T12:55:55;4.78;;;0.95;;
70683;SDS011;58263;48.146;11.440;2023-05-10T12:58:21;3.03;;;1.20;;
70683;SDS011;58263;48.146;11.440;2023-05-10T13:00:46;14.57;;;7.03;;
70683;SDS011;58263;48.146;11.440;2023-05-10T13:03:15;5.35;;;2.78;;
70683;SDS011;58263;48.146;11.440;2023-05-10T13:05:40;8.52;;;2.85;;
70683;SDS011;58263;48.146;11.440;2023-05-10T13:08:09;3.03;;;1.80;;
70683;SDS011;58263;48.146;11.440;2023-05-10T13:10:35;9.60;;;4.95;;
70683;SDS011;58263;48.146;11.440;2023-05-10T13:13:00;20.48;;;10.35;;
70683;SDS011;58263;48.146;11.440;2023-05-10T13:15:26;13.27;;;7.90;;
70683;SDS011;58263;48.146;11.440;2023-05-10T13:17:53;10.13;;;4.70;;
70683;SDS011;58263;48.146;11.440;2023-05-10T13:20:20;9.20;;;4.75;;
70683;SDS011;58263;48.146;11.440;2023-05-10T13:22:46;4.10;;;2.05;;
70683;SDS011;58263;48.146;11.440;2023-05-10T13:25:11;4.72;;;3.20;;
70683;SDS011;58263;48.146;11.440;2023-05-10T13:27:37;5.15;;;2.97;;
70683;SDS011;58263;48.146;11.440;2023-05-10T13:30:05;1.70;;;1.60;;
70683;SDS011;58263;48.146;11.440;2023-05-10T13:32:35;2.92;;;1.95;;
70683;SDS011;58263;48.146;11.440;2023-05-10T13:35:02;6.20;;;1.90;;
70683;SDS011;58263;48.146;11.440;2023-05-10T13:37:31;1.95;;;1.20;;
70683;SDS011;58263;48.146;11.440;2023-05-10T13:39:57;3.03;;;1.25;;
70683;SDS011;58263;48.146;11.440;2023-05-10T13:42:24;2.30;;;1.25;;
70683;SDS011;58263;48.146;11.440;2023-05-10T13:44:49;2.83;;;1.55;;
70683;SDS011;58263;48.146;11.440;2023-05-10T13:47:15;0.70;;;0.70;;
70683;SDS011;58263;48.146;11.440;2023-05-10T13:49:40;2.78;;;1.00;;
70683;SDS011;58263;48.146;11.440;2023-05-10T13:52:06;2.35;;;0.77;;
70683;SDS011;58263;48.146;11.440;2023-05-10T13:54:32;1.88;;;1.77;;
70683;SDS011;58263;48.146;11.440;2023-05-10T13:56:58;2.53;;;1.08;;
70683;SDS011;58263;48.146;11.440;2023-05-10T13:59:24;0.90;;;0.90;;
70683;SDS011;58263;48.146;11.440;2023-05-10T14:01:50;6.70;;;3.58;;
70683;SDS011;58263;48.146;11.440;2023-05-10T14:04:16;4.18;;;2.08;;
70683;SDS011;58263;48.146;11.440;2023-05-10T14:06:41;2.97;;;2.00;;
70683;SDS011;58263;48.146;11.440;2023-05-10T14:09:07;3.27;;;2.60;;
70683;SDS011;58263;48.146;11.440;2023-05-10T14:11:32;1.65;;;1.45;;
70683;SDS011;58263;48.146;11.440;2023-05-10T14:14:11;8.00;;;1.00;;
70683;SDS011;58263;48.146;11.440;2023-05-10T14:16:41;2.63;;;1.15;;
70683;SDS011;58263;48.146;11.440;2023-05-10T14:19:07;1.23;;;0.95;;
70683;SDS011;58263;48.146;11.440;2023-05-10T14:21:33;1.27;;;1.00;;
70683;SDS011;58263;48.146;11.440;2023-05-10T14:23:58;2.17;;;0.87;;
70683;SDS011;58263;48.146;11.440;2023-05-10T14:26:24;1.05;;;0.85;;
70683;SDS011;58263;48.146;11.440;2023-05-10T14:28:49;2.00;;;1.00;;
70683;SDS011;58263;48.146;11.440;2023-05-10T14:31:14;3.37;;;0.87;;
70683;SDS011;58263;48.146;11.440;2023-05-10T14:33:41;1.23;;;1.17;;
70683;SDS011;58263;48.146;11.440;2023-05-10T14:36:07;0.80;;;0.80;;
70683;SDS011;58263;48.146;11.440;2023-05-10T14:38:33;1.77;;;1.67;;
70683;SDS011;58263;48.146;11.440;2023-05-10T14:40:58;1.00;;;0.90;;
70683;SDS011;58263;48.146;11.440;2023-05-10T14:43:24;1.10;;;1.03;;
70683;SDS011;58263;48.146;11.440;2023-05-10T14:45:49;0.50;;;0.50;;
70683;SDS011;58263;48.146;11.440;2023-05-10T14:48:15;1.50;;;0.80;;
70683;SDS011;58263;48.146;11.440;2023-05-10T14:50:42;1.15;;;0.80;;
70683;SDS011;58263;48.146;11.440;2023-05-10T14:53:07;0.80;;;0.80;;
70683;SDS011;58263;48.146;11.440;2023-05-10T14:55:33;1.13;;;1.03;;
70683;SDS011;58263;48.146;11.440;2023-05-10T14:57:59;0.80;;;0.80;;
70683;SDS011;58263;48.146;11.440;2023-05-10T15:00:24;2.00;;;1.07;;
70683;SDS011;58263;48.146;11.440;2023-05-10T15:02:50;2.03;;;1.10;;
70683;SDS011;58263;48.146;11.440;2023-05-10T15:05:15;1.30;;;1.10;;
70683;SDS011;58263;48.146;11.440;2023-05-10T15:07:41;13.33;;;7.07;;
70683;SDS011;58263;48.146;11.440;2023-05-10T15:10:08;2.72;;;1.50;;
70683;SDS011;58263;48.146;11.440;2023-05-10T15:12:34;1.50;;;1.30;;
70683;SDS011;58263;48.146;11.440;2023-05-10T15:14:59;1.07;;;0.93;;
70683;SDS011;58263;48.146;11.440;2023-05-10T15:17:25;1.30;;;1.17;;
70683;SDS011;58263;48.146;11.440;2023-05-10T15:19:51;0.80;;;0.80;;
70683;SDS011;58263;48.146;11.440;2023-05-10T15:22:16;0.67;;;0.67;;
70683;SDS011;58263;48.146;11.440;2023-05-10T15:24:42;1.10;;;1.00;;
70683;SDS011;58263;48.146;11.440;2023-05-10T15:27:08;3.92;;;2.03;;
70683;SDS011;58263;48.146;11.440;2023-05-10T15:29:33;1.27;;;1.10;;
70683;SDS011;58263;48.146;11.440;2023-05-10T15:31:59;4.70;;;2.20;;
70683;SDS011;58263;48.146;11.440;2023-05-10T15:34:26;3.17;;;1.50;;
70683;SDS011;58263;48.146;11.440;2023-05-10T15:36:52;1.77;;;1.40;;